Time;durP1;ratioP1;P1;durP2;ratioP2;P2;SDS_P1;SDS_P2;PMS_P1;PMS_P2;Temp;Humidity;BMP_temperature;BMP_pressure;BME280_temperature;BME280_humidity;BME280_pressure;Samples;Min_cycle;Max_cycle;Signal;HPM_P1;HPM_P2
2024/01/13 00:00:21;;;;;;;15.32;5.00;;;3.10;97.80;;;;;;5002904;28;20120;-81
2024/01/13 00:02:47;;;;;;;18.83;4.72;;;3.10;97.80;;;;;;5019136;28;20076;-82
2024/01/13 00:05:13;;;;;;;14.23;4.53;;;3.10;97.80;;;;;;5002870;28;20401;-82
2024/01/13 00:07:39;;;;;;;14.02;4.78;;;3.10;97.90;;;;;;5019011;28;20030;-83
2024/01/13 00:10:04;;;;;;;11.05;3.88;;;3.10;97.90;;;;;;5002576;28;20080;-81
2024/01/13 00:12:30;;;;;;;10.27;4.00;;;3.10;97.90;;;;;;5035203;28;20041;-80
2024/01/13 00:14:56;;;;;;;7.70;3.63;;;3.10;97.90;;;;;;5002765;28;20041;-81
2024/01/13 00:17:21;;;;;;;15.10;4.63;;;3.10;97.90;;;;;;5019045;28;20152;-81
2024/01/13 00:19:47;;;;;;;12.82;4.72;;;3.20;97.90;;;;;;5018921;28;20656;-80
2024/01/13 00:22:13;;;;;;;12.10;4.45;;;3.20;97.80;;;;;;5018915;28;20042;-80
2024/01/13 00:24:38;;;;;;;16.40;5.95;;;3.20;97.80;;;;;;5018966;28;20562;-80
2024/01/13 00:27:04;;;;;;;12.23;5.10;;;3.20;97.90;;;;;;5002397;28;20040;-82
2024/01/13 00:29:31;;;;;;;12.68;4.90;;;3.20;98.00;;;;;;5018762;28;20042;-81
2024/01/13 00:31:57;;;;;;;12.25;4.85;;;3.30;97.90;;;;;;5002787;28;20044;-81
2024/01/13 00:34:23;;;;;;;13.18;4.40;;;3.30;97.90;;;;;;5019058;28;20045;-81
2024/01/13 00:36:49;;;;;;;12.00;5.20;;;3.30;97.80;;;;;;5002261;28;20452;-83
2024/01/13 00:39:14;;;;;;;13.85;5.38;;;3.40;97.90;;;;;;5002194;28;20037;-83
2024/01/13 00:41:40;;;;;;;16.98;5.75;;;3.30;97.80;;;;;;5035126;28;20052;-81
2024/01/13 00:44:06;;;;;;;15.50;5.40;;;3.40;97.80;;;;;;4998317;28;20041;-81
2024/01/13 00:46:31;;;;;;;21.15;5.93;;;3.40;97.80;;;;;;4982606;28;20053;-82
2024/01/13 00:48:57;;;;;;;12.38;4.68;;;3.40;97.80;;;;;;4999553;28;20033;-81
2024/01/13 00:51:23;;;;;;;12.02;4.20;;;3.40;97.80;;;;;;5014744;28;20128;-81
2024/01/13 00:53:48;;;;;;;12.07;4.70;;;3.40;97.80;;;;;;4998662;28;20494;-81
2024/01/13 00:56:14;;;;;;;10.88;4.55;;;3.40;97.80;;;;;;5033449;28;20111;-82
2024/01/13 00:58:40;;;;;;;11.77;3.90;;;3.40;97.80;;;;;;5018636;28;20048;-81
2024/01/13 01:01:06;;;;;;;16.38;3.72;;;3.40;97.80;;;;;;5018178;28;20050;-81
2024/01/13 01:03:31;;;;;;;10.20;3.22;;;3.40;97.80;;;;;;5018418;28;20044;-81
2024/01/13 01:05:58;;;;;;;12.15;3.78;;;3.40;97.80;;;;;;5001739;28;20540;-81
2024/01/13 01:08:23;;;;;;;13.20;4.05;;;3.40;97.80;;;;;;5001783;28;20048;-81
2024/01/13 01:10:49;;;;;;;10.68;3.45;;;3.40;97.80;;;;;;5001548;28;20041;-81
2024/01/13 01:13:15;;;;;;;15.25;4.05;;;3.40;97.80;;;;;;5006041;28;20121;-81
2024/01/13 01:15:41;;;;;;;16.55;3.60;;;3.40;97.80;;;;;;4998412;28;20653;-81
2024/01/13 01:18:06;;;;;;;14.65;3.20;;;3.40;97.90;;;;;;4998287;28;20399;-80
2024/01/13 01:20:32;;;;;;;13.88;3.42;;;3.40;97.90;;;;;;4998188;28;20086;-82
2024/01/13 01:22:58;;;;;;;8.40;2.92;;;3.40;97.90;;;;;;4998063;28;20100;-80
2024/01/13 01:25:23;;;;;;;12.40;3.20;;;3.40;97.90;;;;;;5014478;28;20383;-81
2024/01/13 01:27:49;;;;;;;15.13;3.95;;;3.30;97.90;;;;;;4997985;28;20038;-82
2024/01/13 01:30:15;;;;;;;14.60;3.50;;;3.40;97.90;;;;;;4997955;28;20046;-81
2024/01/13 01:32:40;;;;;;;8.05;3.45;;;3.40;97.90;;;;;;4981808;28;20380;-81
2024/01/13 01:35:06;;;;;;;11.75;4.07;;;3.50;97.90;;;;;;5014259;28;20065;-81
2024/01/13 01:37:33;;;;;;;9.70;2.97;;;3.40;97.90;;;;;;4981946;28;20038;-82
2024/01/13 01:39:59;;;;;;;10.70;4.55;;;3.40;97.90;;;;;;4997715;28;20042;-81
2024/01/13 01:42:24;;;;;;;11.57;3.78;;;3.50;97.90;;;;;;5014021;28;20106;-81
2024/01/13 01:44:50;;;;;;;10.55;3.38;;;3.50;97.90;;;;;;5029514;28;20037;-82
2024/01/13 01:47:19;;;;;;;11.27;2.95;;;3.50;97.90;;;;;;5017163;28;20080;-81
2024/01/13 01:49:46;;;;;;;13.63;3.25;;;3.50;97.90;;;;;;5017389;28;20041;-82
2024/01/13 01:52:13;;;;;;;9.45;3.97;;;3.40;97.90;;;;;;5017148;28;20052;-81
2024/01/13 01:54:39;;;;;;;12.48;3.83;;;3.50;97.90;;;;;;5033539;28;20490;-82
2024/01/13 01:57:05;;;;;;;11.10;3.22;;;3.40;97.90;;;;;;5016214;28;20136;-81
2024/01/13 01:59:31;;;;;;;15.82;4.30;;;3.40;97.90;;;;;;5033540;28;20052;-81
2024/01/13 02:01:59;;;;;;;14.73;4.88;;;3.30;97.90;;;;;;5000621;28;20041;-82
2024/01/13 02:04:25;;;;;;;15.77;3.95;;;3.30;97.90;;;;;;5032772;28;20033;-82
2024/01/13 02:06:52;;;;;;;17.27;5.28;;;3.20;97.90;;;;;;5000566;28;20382;-81
2024/01/13 02:09:18;;;;;;;17.33;4.63;;;3.20;97.90;;;;;;5016901;28;20072;-82
2024/01/13 02:11:45;;;;;;;11.98;4.78;;;3.10;97.90;;;;;;4999522;28;20052;-81
2024/01/13 02:14:11;;;;;;;11.80;4.60;;;3.20;97.90;;;;;;4981138;28;20042;-82
2024/01/13 02:16:36;;;;;;;13.43;4.78;;;3.10;97.90;;;;;;4980999;28;20387;-81
2024/01/13 02:19:02;;;;;;;18.85;4.78;;;3.10;97.90;;;;;;4964796;28;20073;-81
2024/01/13 02:21:28;;;;;;;17.50;4.95;;;3.10;98.00;;;;;;4980992;28;20088;-81
2024/01/13 02:23:54;;;;;;;16.38;5.13;;;3.10;98.00;;;;;;4980811;28;20450;-81
2024/01/13 02:26:19;;;;;;;14.70;5.80;;;3.00;97.90;;;;;;4965614;28;20037;-81
2024/01/13 02:28:45;;;;;;;15.30;5.32;;;3.00;98.00;;;;;;4980898;28;20041;-80
2024/01/13 02:31:12;;;;;;;18.17;5.72;;;3.00;98.00;;;;;;5016164;28;20501;-81
2024/01/13 02:33:37;;;;;;;10.68;4.30;;;3.00;98.10;;;;;;5032893;28;20064;-81
2024/01/13 02:36:04;;;;;;;12.05;4.07;;;3.00;98.10;;;;;;5016033;28;20041;-81
2024/01/13 02:38:29;;;;;;;12.55;3.95;;;3.00;98.10;;;;;;4999962;28;20037;-80
2024/01/13 02:40:55;;;;;;;16.95;4.93;;;3.00;98.10;;;;;;5016129;28;20512;-81
2024/01/13 02:43:20;;;;;;;19.35;5.38;;;3.00;98.20;;;;;;5016136;28;20037;-81
2024/01/13 02:45:46;;;;;;;17.00;5.00;;;3.00;98.10;;;;;;5032658;28;20128;-81
2024/01/13 02:48:18;;;;;;;18.75;4.50;;;3.00;98.20;;;;;;5016145;28;20379;-80
2024/01/13 02:51:05;;;;;;;11.95;4.07;;;3.00;98.20;;;;;;5032849;28;20033;-81
2024/01/13 02:53:31;;;;;;;19.05;4.53;;;3.00;98.20;;;;;;5032570;28;20037;-81
2024/01/13 02:55:57;;;;;;;16.55;3.75;;;3.10;98.10;;;;;;5015572;28;20055;-81
2024/01/13 02:58:22;;;;;;;14.52;4.45;;;3.10;98.20;;;;;;4999552;28;20041;-80
2024/01/13 03:00:48;;;;;;;13.32;4.38;;;3.10;98.30;;;;;;4999658;28;20096;-81
2024/01/13 03:03:14;;;;;;;16.30;4.70;;;3.10;98.20;;;;;;4999721;28;20037;-80
2024/01/13 03:05:39;;;;;;;12.98;3.58;;;3.10;98.20;;;;;;5015946;28;20041;-81
2024/01/13 03:08:05;;;;;;;10.40;3.42;;;3.10;98.10;;;;;;4999511;28;20041;-81
2024/01/13 03:10:31;;;;;;;11.43;3.40;;;3.10;98.20;;;;;;4999670;28;20507;-81
2024/01/13 03:12:57;;;;;;;12.18;4.38;;;3.10;98.20;;;;;;4993105;28;20049;-81
2024/01/13 03:15:23;;;;;;;11.38;3.42;;;3.10;98.10;;;;;;4995913;28;20479;-81
2024/01/13 03:17:49;;;;;;;8.63;3.80;;;3.10;98.10;;;;;;4980333;28;20441;-80
2024/01/13 03:20:14;;;;;;;10.82;2.92;;;3.20;98.20;;;;;;4963956;28;20038;-81
2024/01/13 03:22:40;;;;;;;15.00;3.97;;;3.30;98.20;;;;;;4980302;28;20046;-82
2024/01/13 03:25:06;;;;;;;11.50;2.80;;;3.30;98.20;;;;;;4963980;28;20038;-83
2024/01/13 03:27:32;;;;;;;5.72;2.22;;;3.30;98.20;;;;;;4996363;28;20404;-80
2024/01/13 03:29:58;;;;;;;6.78;2.83;;;3.30;98.10;;;;;;5000111;28;20037;-82
2024/01/13 03:32:23;;;;;;;10.02;2.80;;;3.40;98.10;;;;;;5015715;28;20065;-81
2024/01/13 03:34:49;;;;;;;6.70;2.42;;;3.40;98.10;;;;;;4999254;28;20068;-82
2024/01/13 03:37:15;;;;;;;5.80;2.22;;;3.40;98.10;;;;;;4996348;28;20042;-79
2024/01/13 03:39:40;;;;;;;8.40;3.33;;;3.50;98.00;;;;;;4979842;28;20042;-81
2024/01/13 03:42:06;;;;;;;8.60;2.90;;;3.40;98.00;;;;;;4995870;28;20046;-80
2024/01/13 03:44:32;;;;;;;9.85;3.10;;;3.50;98.00;;;;;;4996275;28;20070;-80
2024/01/13 03:47:00;;;;;;;7.13;2.50;;;3.40;98.00;;;;;;5009795;28;20042;-81
2024/01/13 03:49:26;;;;;;;9.50;3.17;;;3.40;98.00;;;;;;5011966;28;20073;-80
2024/01/13 03:51:52;;;;;;;10.18;3.20;;;3.50;98.00;;;;;;4996047;28;20074;-79
2024/01/13 03:54:18;;;;;;;8.23;2.50;;;3.40;98.00;;;;;;5012136;28;20056;-79
2024/01/13 03:56:43;;;;;;;7.93;3.15;;;3.40;98.00;;;;;;4995552;28;20061;-79
2024/01/13 03:59:12;;;;;;;8.25;3.10;;;3.40;98.00;;;;;;5010402;28;20088;-81
2024/01/13 04:01:38;;;;;;;7.82;2.60;;;3.50;98.10;;;;;;5011967;28;20045;-79
2024/01/13 04:04:04;;;;;;;13.50;3.58;;;3.40;98.00;;;;;;4995567;28;20057;-79
2024/01/13 04:06:29;;;;;;;13.63;3.13;;;3.40;98.00;;;;;;4995657;28;20120;-79
2024/01/13 04:08:55;;;;;;;9.50;2.92;;;3.40;98.00;;;;;;5012014;28;20033;-79
2024/01/13 04:11:21;;;;;;;8.55;2.80;;;3.40;98.00;;;;;;5012004;28;20053;-79
2024/01/13 04:13:46;;;;;;;11.20;2.70;;;3.50;98.10;;;;;;5012264;28;20141;-80
2024/01/13 04:16:12;;;;;;;10.68;3.95;;;3.50;98.00;;;;;;4998715;28;20508;-80
2024/01/13 04:18:38;;;;;;;9.35;3.28;;;3.50;98.00;;;;;;4999183;28;20100;-80
2024/01/13 04:21:04;;;;;;;5.88;2.50;;;3.50;98.00;;;;;;5031418;28;20045;-81
2024/01/13 04:23:30;;;;;;;7.43;1.90;;;3.60;98.00;;;;;;5015221;28;20045;-80
2024/01/13 04:25:55;;;;;;;10.60;2.55;;;3.60;97.90;;;;;;5015537;28;20037;-80
2024/01/13 04:28:21;;;;;;;6.68;2.33;;;3.50;97.90;;;;;;5001719;28;20081;-80
2024/01/13 04:30:46;;;;;;;7.03;2.38;;;3.60;97.90;;;;;;5018474;28;20045;-81
2024/01/13 04:33:12;;;;;;;11.32;2.50;;;3.50;97.90;;;;;;5002415;28;20033;-80
2024/01/13 04:35:38;;;;;;;5.28;2.13;;;3.50;97.90;;;;;;5018704;28;20405;-81
2024/01/13 04:38:04;;;;;;;14.55;2.80;;;3.40;97.90;;;;;;5018841;28;20029;-81
2024/01/13 04:40:33;;;;;;;5.80;1.95;;;3.40;97.90;;;;;;5002189;28;20499;-81
2024/01/13 04:42:58;;;;;;;4.85;1.55;;;3.30;97.90;;;;;;5002617;28;20049;-81
2024/01/13 04:45:24;;;;;;;5.50;2.05;;;3.30;97.90;;;;;;4998667;28;20038;-83
2024/01/13 04:47:50;;;;;;;5.38;1.60;;;3.30;98.00;;;;;;4998740;28;20037;-82
2024/01/13 04:50:16;;;;;;;3.00;1.17;;;3.40;98.00;;;;;;5015344;28;20128;-82
2024/01/13 04:52:43;;;;;;;4.68;1.65;;;3.30;98.00;;;;;;5015085;28;20041;-82
2024/01/13 04:55:09;;;;;;;6.88;1.90;;;3.30;98.00;;;;;;5017729;28;20482;-81
2024/01/13 04:57:35;;;;;;;3.75;1.50;;;3.40;98.10;;;;;;5018527;28;20072;-81
2024/01/13 05:00:00;;;;;;;7.55;1.67;;;3.40;98.10;;;;;;5018355;28;20508;-82
2024/01/13 05:02:26;;;;;;;7.40;2.20;;;3.40;98.10;;;;;;5021181;28;20041;-81
2024/01/13 05:04:52;;;;;;;5.57;1.55;;;3.40;98.00;;;;;;5004892;28;20033;-82
2024/01/13 05:07:20;;;;;;;10.73;2.55;;;3.40;98.10;;;;;;5005040;28;20111;-81
2024/01/13 05:09:45;;;;;;;4.55;1.40;;;3.40;98.00;;;;;;5021776;28;20041;-82
2024/01/13 05:12:11;;;;;;;8.77;2.08;;;3.40;98.10;;;;;;5021292;28;20047;-81
2024/01/13 05:14:37;;;;;;;5.55;1.58;;;3.30;98.00;;;;;;5021229;28;20040;-81
2024/01/13 05:17:03;;;;;;;6.55;1.52;;;3.20;98.10;;;;;;5037252;28;20072;-82
2024/01/13 05:19:28;;;;;;;7.50;1.35;;;3.30;98.10;;;;;;5021152;28;20045;-81
2024/01/13 05:21:54;;;;;;;7.60;1.30;;;3.20;98.20;;;;;;5021094;28;20147;-82
2024/01/13 05:24:20;;;;;;;4.35;1.30;;;3.20;98.20;;;;;;5020849;28;20527;-80
2024/01/13 05:26:46;;;;;;;4.75;1.00;;;3.30;98.20;;;;;;5004661;28;20401;-80
2024/01/13 05:29:11;;;;;;;2.70;0.90;;;3.20;98.30;;;;;;5004495;28;20037;-80
2024/01/13 05:31:37;;;;;;;3.97;0.98;;;3.30;98.20;;;;;;5004849;28;20045;-80
2024/01/13 05:34:03;;;;;;;3.42;0.90;;;3.30;98.30;;;;;;5019918;28;20040;-81
2024/01/13 05:36:28;;;;;;;4.13;1.40;;;3.30;98.30;;;;;;5037388;28;20091;-80
2024/01/13 05:38:54;;;;;;;4.10;1.00;;;3.30;98.30;;;;;;5004331;28;20044;-80
2024/01/13 05:41:19;;;;;;;5.80;0.80;;;3.30;98.30;;;;;;5004165;28;20080;-81
2024/01/13 05:43:45;;;;;;;1.98;0.60;;;3.30;98.30;;;;;;5020715;28;20033;-80
2024/01/13 05:46:11;;;;;;;3.22;0.70;;;3.40;98.40;;;;;;5004338;28;20508;-80
2024/01/13 05:48:37;;;;;;;3.85;0.70;;;3.40;98.30;;;;;;5036925;28;20386;-80
2024/01/13 05:51:03;;;;;;;4.28;0.90;;;3.40;98.20;;;;;;5035524;28;20033;-80
2024/01/13 05:53:29;;;;;;;5.82;1.20;;;3.40;98.20;;;;;;5004273;28;20374;-80
2024/01/13 05:55:54;;;;;;;4.10;0.88;;;3.40;98.20;;;;;;5020347;28;20509;-80
2024/01/13 05:58:20;;;;;;;2.35;0.65;;;3.50;98.20;;;;;;4987872;28;20131;-81
2024/01/13 06:00:46;;;;;;;2.80;0.70;;;3.50;98.20;;;;;;5019655;28;20171;-81
2024/01/13 06:03:12;;;;;;;3.25;0.82;;;3.50;98.10;;;;;;5020588;28;20045;-80
2024/01/13 06:05:40;;;;;;;3.83;0.95;;;3.50;98.20;;;;;;5036816;28;20041;-80
2024/01/13 06:08:06;;;;;;;7.68;0.95;;;3.40;98.10;;;;;;5020577;28;20033;-80
2024/01/13 06:10:31;;;;;;;3.03;1.15;;;3.40;98.10;;;;;;5020282;28;20036;-80
2024/01/13 06:12:59;;;;;;;3.25;1.42;;;3.40;98.10;;;;;;5020223;28;20091;-80
2024/01/13 06:15:26;;;;;;;4.43;0.98;;;3.40;98.10;;;;;;5036030;28;20103;-80
2024/01/13 06:17:52;;;;;;;5.35;1.10;;;3.30;98.10;;;;;;5019998;28;20053;-81
2024/01/13 06:20:18;;;;;;;12.43;1.30;;;3.40;98.20;;;;;;5020145;28;20067;-81
2024/01/13 06:22:44;;;;;;;6.63;1.42;;;3.40;98.20;;;;;;5036275;28;20545;-80
2024/01/13 06:25:09;;;;;;;4.25;1.50;;;3.30;98.20;;;;;;5003486;28;20041;-81
2024/01/13 06:27:35;;;;;;;7.78;1.52;;;3.30;98.20;;;;;;5036250;28;20048;-81
2024/01/13 06:30:01;;;;;;;4.53;1.50;;;3.40;98.30;;;;;;5019735;28;20041;-81
2024/01/13 06:32:26;;;;;;;6.15;1.67;;;3.50;98.30;;;;;;5036311;28;20045;-80
2024/01/13 06:34:52;;;;;;;8.73;1.50;;;3.50;98.30;;;;;;5020579;28;20401;-81
2024/01/13 06:37:19;;;;;;;4.78;1.65;;;3.50;98.30;;;;;;5003334;28;20131;-81
2024/01/13 06:39:45;;;;;;;4.63;0.90;;;3.60;98.30;;;;;;4987613;28;20049;-81
2024/01/13 06:42:11;;;;;;;3.78;1.20;;;3.60;98.40;;;;;;5002815;28;20056;-80
2024/01/13 06:44:36;;;;;;;5.90;2.17;;;3.60;98.30;;;;;;5018694;28;20033;-80
2024/01/13 06:47:03;;;;;;;6.10;1.40;;;3.60;98.30;;;;;;4985498;28;20163;-81
2024/01/13 06:49:28;;;;;;;9.30;2.70;;;3.60;98.30;;;;;;5033728;28;20044;-81
2024/01/13 06:51:54;;;;;;;5.60;1.80;;;3.60;98.20;;;;;;5001864;28;20041;-81
2024/01/13 06:54:20;;;;;;;7.82;2.15;;;3.60;98.30;;;;;;4986432;28;20074;-81
2024/01/13 06:56:46;;;;;;;6.38;1.95;;;3.50;98.30;;;;;;4986244;28;20417;-80
2024/01/13 06:59:11;;;;;;;5.85;2.40;;;3.50;98.30;;;;;;5002895;28;20048;-82
2024/01/13 07:01:37;;;;;;;6.95;3.55;;;3.50;98.30;;;;;;5016331;28;20298;-83
2024/01/13 07:04:03;;;;;;;13.00;4.85;;;3.50;98.30;;;;;;5002415;28;20044;-81
2024/01/13 07:06:29;;;;;;;16.25;7.63;;;3.60;98.40;;;;;;5018748;28;20041;-80
2024/01/13 07:08:57;;;;;;;20.15;11.27;;;3.60;98.40;;;;;;5018813;28;20041;-81
2024/01/13 07:11:23;;;;;;;23.65;12.65;;;3.60;98.30;;;;;;5018730;28;20080;-81
2024/01/13 07:13:48;;;;;;;23.55;12.50;;;3.60;98.40;;;;;;5035070;28;20079;-80
2024/01/13 07:16:14;;;;;;;29.60;15.27;;;3.60;98.30;;;;;;5002346;28;20040;-81
2024/01/13 07:18:41;;;;;;;31.00;15.45;;;3.60;98.20;;;;;;5017740;28;20047;-80
2024/01/13 07:21:07;;;;;;;40.85;19.40;;;3.60;98.30;;;;;;5018682;28;20445;-81
2024/01/13 07:23:33;;;;;;;44.10;24.10;;;3.60;98.20;;;;;;5018513;28;20033;-80
2024/01/13 07:26:00;;;;;;;39.90;22.90;;;3.60;98.20;;;;;;5018560;28;20041;-80
2024/01/13 07:28:25;;;;;;;37.58;21.15;;;3.60;98.20;;;;;;5034902;28;20045;-81
2024/01/13 07:30:51;;;;;;;45.67;22.67;;;3.60;98.20;;;;;;5018477;28;20033;-80
2024/01/13 07:33:17;;;;;;;47.30;25.30;;;3.60;98.10;;;;;;5018701;28;20103;-80
2024/01/13 07:35:42;;;;;;;49.55;26.73;;;3.60;98.00;;;;;;5017431;28;20371;-81
2024/01/13 07:38:08;;;;;;;46.35;24.85;;;3.60;98.00;;;;;;5034957;28;20040;-82
2024/01/13 07:40:34;;;;;;;45.10;26.30;;;3.70;97.90;;;;;;5018743;28;20099;-80
2024/01/13 07:42:59;;;;;;;47.60;26.13;;;3.70;97.90;;;;;;5018167;28;20099;-80
2024/01/13 07:45:25;;;;;;;42.17;24.73;;;3.70;97.80;;;;;;5002111;28;20040;-81
2024/01/13 07:47:51;;;;;;;52.00;25.23;;;3.70;97.80;;;;;;5018424;28;20040;-81
2024/01/13 07:50:17;;;;;;;45.80;25.45;;;3.70;97.70;;;;;;5018590;28;20045;-81
2024/01/13 07:52:43;;;;;;;45.85;23.73;;;3.70;97.60;;;;;;5017229;28;20040;-81
2024/01/13 07:55:09;;;;;;;47.58;25.83;;;3.70;97.50;;;;;;5018151;28;20047;-80
2024/01/13 07:57:35;;;;;;;43.80;23.90;;;3.70;97.40;;;;;;5018385;28;20049;-81
2024/01/13 08:00:02;;;;;;;48.20;24.58;;;3.70;97.30;;;;;;5018264;28;20098;-81
2024/01/13 08:02:27;;;;;;;49.75;24.63;;;3.80;97.30;;;;;;5033082;28;20528;-80
2024/01/13 08:04:53;;;;;;;53.50;27.05;;;3.70;97.20;;;;;;5022386;28;20103;-81
2024/01/13 08:07:20;;;;;;;58.22;30.13;;;3.80;97.20;;;;;;5005722;28;20149;-81
2024/01/13 08:09:47;;;;;;;51.70;27.48;;;3.70;96.90;;;;;;5021821;28;20060;-81
2024/01/13 08:12:13;;;;;;;53.47;28.08;;;3.70;97.00;;;;;;5021838;28;20041;-81
2024/01/13 08:14:39;;;;;;;61.72;31.33;;;3.70;96.90;;;;;;5021912;28;20409;-80
2024/01/13 08:17:06;;;;;;;57.70;30.98;;;3.70;96.90;;;;;;5020729;28;20093;-81
2024/01/13 08:19:31;;;;;;;54.97;28.13;;;3.80;96.80;;;;;;5021491;28;20485;-82
2024/01/13 08:21:57;;;;;;;61.83;34.90;;;3.80;96.70;;;;;;5021658;28;20036;-82
2024/01/13 08:24:23;;;;;;;59.60;34.20;;;3.80;96.30;;;;;;5037847;28;20064;-80
2024/01/13 08:26:49;;;;;;;62.67;33.20;;;3.80;96.00;;;;;;5021196;28;20435;-81
2024/01/13 08:29:15;;;;;;;65.38;37.95;;;3.80;96.00;;;;;;4989365;28;20033;-81
2024/01/13 08:31:40;;;;;;;65.80;36.25;;;3.70;95.90;;;;;;5005218;28;20505;-82
2024/01/13 08:34:09;;;;;;;68.07;36.95;;;3.80;95.90;;;;;;5004486;28;20048;-82
2024/01/13 08:36:35;;;;;;;61.65;35.95;;;3.80;95.60;;;;;;5005698;28;20076;-82
2024/01/13 08:39:00;;;;;;;67.55;37.35;;;3.90;95.40;;;;;;5005160;28;20068;-83
2024/01/13 08:41:26;;;;;;;59.63;37.58;;;3.80;95.30;;;;;;5004963;28;20686;-82
2024/01/13 08:43:52;;;;;;;58.40;36.80;;;3.80;95.20;;;;;;5005207;28;20037;-82
2024/01/13 08:46:17;;;;;;;56.25;36.65;;;3.80;95.00;;;;;;5005328;28;20119;-82
2024/01/13 08:48:43;;;;;;;62.35;40.20;;;3.90;94.90;;;;;;4989008;28;20036;-81
2024/01/13 08:51:09;;;;;;;58.53;38.65;;;3.80;94.90;;;;;;5020175;28;20503;-82
2024/01/13 08:53:34;;;;;;;64.63;39.53;;;3.80;94.90;;;;;;5021562;28;20041;-84
2024/01/13 08:56:00;;;;;;;69.40;41.65;;;3.80;95.00;;;;;;5004914;28;20053;-80
2024/01/13 08:58:26;;;;;;;69.90;38.72;;;3.80;94.90;;;;;;4988760;28;20123;-81
2024/01/13 09:00:54;;;;;;;60.42;35.05;;;3.80;95.00;;;;;;5021029;28;20041;-82
2024/01/13 09:03:21;;;;;;;68.20;39.13;;;3.80;95.00;;;;;;4986754;28;20048;-81
2024/01/13 09:05:47;;;;;;;73.25;38.53;;;3.80;94.90;;;;;;5020999;28;20044;-81
2024/01/13 09:08:13;;;;;;;66.32;38.80;;;3.80;95.00;;;;;;5021022;28;20037;-80
2024/01/13 09:10:39;;;;;;;67.47;39.15;;;3.80;94.80;;;;;;5004855;28;20040;-81
2024/01/13 09:13:05;;;;;;;63.72;38.47;;;3.80;94.80;;;;;;5020320;28;20545;-81
2024/01/13 09:15:31;;;;;;;59.40;32.30;;;3.90;94.70;;;;;;5004624;28;20124;-82
2024/01/13 09:17:57;;;;;;;54.85;33.63;;;3.90;94.50;;;;;;5037122;28;20114;-81
2024/01/13 09:20:24;;;;;;;55.85;32.30;;;3.90;94.50;;;;;;4988423;28;20041;-80
2024/01/13 09:22:50;;;;;;;53.67;32.05;;;3.90;94.40;;;;;;5003263;28;20045;-82
2024/01/13 09:25:15;;;;;;;50.10;28.70;;;3.90;94.40;;;;;;5020807;28;20035;-82
2024/01/13 09:27:41;;;;;;;59.83;32.80;;;3.80;94.50;;;;;;5004257;28;20033;-83
2024/01/13 09:30:07;;;;;;;64.93;32.80;;;3.90;94.50;;;;;;5020608;28;20036;-80
2024/01/13 09:32:33;;;;;;;39.92;23.13;;;3.80;94.50;;;;;;5004479;28;20114;-81
2024/01/13 09:34:58;;;;;;;41.42;22.10;;;3.80;94.80;;;;;;5005175;28;20481;-81
2024/01/13 09:37:24;;;;;;;39.30;24.90;;;3.90;94.70;;;;;;4987479;28;20040;-83
2024/01/13 09:39:51;;;;;;;40.33;22.85;;;3.90;94.70;;;;;;5004341;28;20150;-83
2024/01/13 09:42:55;;;;;;;47.35;22.88;;;3.90;94.70;;;;;;5004097;28;20071;-81
2024/01/13 09:45:22;;;;;;;35.38;21.00;;;4.00;94.70;;;;;;4977376;28;20551;-81
2024/01/13 09:47:48;;;;;;;35.70;18.27;;;3.90;94.90;;;;;;5020456;28;20370;-81
2024/01/13 09:50:14;;;;;;;38.70;21.38;;;3.90;94.80;;;;;;5003884;28;20044;-80
2024/01/13 09:52:43;;;;;;;40.70;21.00;;;3.90;94.80;;;;;;5019106;28;20036;-82
2024/01/13 09:55:11;;;;;;;40.40;23.60;;;3.90;94.80;;;;;;5053059;28;20047;-81
2024/01/13 09:57:37;;;;;;;51.10;23.83;;;3.90;94.80;;;;;;5020451;28;20048;-81
2024/01/13 10:00:03;;;;;;;39.50;22.42;;;3.90;94.90;;;;;;5019995;28;20445;-80
2024/01/13 10:02:30;;;;;;;40.30;24.33;;;3.90;95.00;;;;;;5019635;28;20477;-81
2024/01/13 10:04:55;;;;;;;37.30;23.20;;;4.00;94.80;;;;;;5000956;28;20033;-82
2024/01/13 10:07:21;;;;;;;42.75;25.15;;;4.00;94.90;;;;;;5003573;28;20503;-82
2024/01/13 10:09:47;;;;;;;38.00;21.02;;;4.00;94.90;;;;;;5003568;28;20111;-81
2024/01/13 10:12:12;;;;;;;40.92;24.50;;;4.00;94.90;;;;;;4987426;28;20033;-82
2024/01/13 10:14:39;;;;;;;35.55;19.20;;;4.10;95.00;;;;;;5003389;28;20481;-81
2024/01/13 10:17:05;;;;;;;37.40;19.25;;;4.10;95.00;;;;;;5019617;28;20041;-82
2024/01/13 10:19:38;;;;;;;33.28;18.10;;;4.10;95.00;;;;;;4987267;28;20405;-81
2024/01/13 10:22:05;;;;;;;41.05;20.40;;;4.10;95.00;;;;;;5002591;28;20445;-82
2024/01/13 10:24:31;;;;;;;36.53;21.23;;;4.20;95.00;;;;;;5035663;28;20397;-82
2024/01/13 10:26:57;;;;;;;36.97;18.85;;;4.10;95.00;;;;;;5003394;28;20037;-81
2024/01/13 10:29:23;;;;;;;33.35;18.55;;;4.20;95.30;;;;;;5019504;28;20090;-80
2024/01/13 10:31:53;;;;;;;32.70;17.23;;;4.20;95.30;;;;;;5035804;28;20041;-80
2024/01/13 10:34:19;;;;;;;37.53;20.25;;;4.20;95.40;;;;;;5020058;28;20076;-83
2024/01/13 10:36:45;;;;;;;30.80;16.48;;;4.20;95.40;;;;;;5003156;28;20072;-82
2024/01/13 10:39:11;;;;;;;31.77;17.70;;;4.20;95.50;;;;;;5018156;28;20037;-80
2024/01/13 10:41:42;;;;;;;31.10;17.88;;;4.30;95.70;;;;;;5035635;28;20047;-81
2024/01/13 10:44:09;;;;;;;34.15;18.50;;;4.20;95.80;;;;;;5035622;28;20045;-81
2024/01/13 10:46:37;;;;;;;32.42;15.52;;;4.20;95.90;;;;;;5019104;28;20041;-81
2024/01/13 10:49:12;;;;;;;36.47;16.85;;;4.30;96.00;;;;;;5035660;28;20120;-81
2024/01/13 10:51:50;;;;;;;27.83;15.90;;;4.20;96.10;;;;;;5035815;28;20110;-81
2024/01/13 10:54:18;;;;;;;33.95;18.35;;;4.30;96.10;;;;;;5019162;28;20052;-80
2024/01/13 10:56:44;;;;;;;35.58;17.48;;;4.20;96.10;;;;;;5001995;28;20142;-82
2024/01/13 10:59:10;;;;;;;31.65;16.80;;;4.30;96.20;;;;;;5019194;28;20107;-82
2024/01/13 11:01:38;;;;;;;34.63;15.15;;;4.30;96.30;;;;;;5021800;28;20413;-80
2024/01/13 11:04:04;;;;;;;24.08;11.98;;;4.30;96.40;;;;;;5020260;28;20036;-81
2024/01/13 11:06:30;;;;;;;29.98;14.38;;;4.40;96.50;;;;;;5031610;28;20043;-81
2024/01/13 11:08:56;;;;;;;25.95;12.57;;;4.40;96.40;;;;;;5035236;28;20037;-81
2024/01/13 11:11:35;;;;;;;25.20;12.68;;;4.40;96.50;;;;;;5018761;28;20041;-82
2024/01/13 11:14:14;;;;;;;25.15;13.18;;;4.50;96.50;;;;;;5018835;28;20485;-81
2024/01/13 11:16:45;;;;;;;24.52;12.60;;;4.50;96.60;;;;;;5035502;28;20123;-81
2024/01/13 11:19:11;;;;;;;22.35;11.55;;;4.60;96.60;;;;;;5002642;28;20040;-81
2024/01/13 11:21:38;;;;;;;26.20;13.00;;;4.60;96.60;;;;;;5017289;28;20048;-81
2024/01/13 11:24:07;;;;;;;27.50;10.68;;;4.70;96.60;;;;;;5034995;28;20041;-80
2024/01/13 11:26:36;;;;;;;20.65;9.05;;;4.70;96.70;;;;;;5035283;28;20041;-81
2024/01/13 11:29:14;;;;;;;19.15;9.05;;;4.80;96.80;;;;;;5018893;28;20078;-80
2024/01/13 11:31:44;;;;;;;18.10;7.25;;;4.80;96.70;;;;;;5018064;28;20049;-80
2024/01/13 11:34:11;;;;;;;21.63;7.43;;;4.80;96.90;;;;;;5034926;28;20094;-81
2024/01/13 11:36:44;;;;;;;10.07;4.72;;;4.90;96.90;;;;;;5004472;28;20043;-81
2024/01/13 11:39:10;;;;;;;11.45;5.45;;;5.00;96.80;;;;;;5021615;28;20041;-80
2024/01/13 11:41:41;;;;;;;13.20;5.20;;;5.00;96.90;;;;;;5022419;28;20051;-80
2024/01/13 11:44:09;;;;;;;21.67;6.88;;;5.00;97.00;;;;;;5022508;28;20045;-80
2024/01/13 11:46:39;;;;;;;15.93;4.85;;;5.00;97.00;;;;;;5022582;28;20076;-81
2024/01/13 11:49:05;;;;;;;9.57;4.38;;;5.00;97.10;;;;;;5022486;28;20044;-80
2024/01/13 11:51:57;;;;;;;12.32;4.28;;;5.10;97.10;;;;;;5006011;28;20049;-81
2024/01/13 11:54:27;;;;;;;10.70;4.03;;;5.00;97.20;;;;;;5038827;28;20128;-81
2024/01/13 11:56:53;;;;;;;11.05;3.88;;;5.00;97.20;;;;;;5037402;28;20053;-80
2024/01/13 11:59:19;;;;;;;12.18;3.30;;;5.00;97.30;;;;;;5022221;28;20103;-83
2024/01/13 12:01:46;;;;;;;12.93;4.32;;;5.10;97.40;;;;;;5005204;28;20037;-81
2024/01/13 12:04:13;;;;;;;12.80;4.03;;;5.10;97.30;;;;;;5038752;28;20070;-81
2024/01/13 12:06:40;;;;;;;12.75;3.50;;;5.00;97.30;;;;;;5035502;28;20063;-80
2024/01/13 12:09:06;;;;;;;15.52;4.82;;;5.10;97.50;;;;;;5022061;28;20037;-79
2024/01/13 12:11:32;;;;;;;13.60;6.18;;;5.10;97.50;;;;;;5005770;28;20041;-80
2024/01/13 12:13:58;;;;;;;12.63;4.60;;;5.10;97.50;;;;;;5006019;28;20052;-79
2024/01/13 12:16:24;;;;;;;9.68;4.18;;;5.10;97.50;;;;;;5005550;28;20043;-80
2024/01/13 12:18:49;;;;;;;10.45;2.97;;;5.10;97.50;;;;;;5022021;28;20053;-80
2024/01/13 12:21:15;;;;;;;9.20;3.25;;;5.20;97.60;;;;;;5017369;28;20037;-82
2024/01/13 12:23:44;;;;;;;15.15;7.40;;;5.20;97.60;;;;;;5019100;28;20420;-80
2024/01/13 12:26:10;;;;;;;10.95;5.57;;;5.20;97.50;;;;;;4970211;28;20041;-83
2024/01/13 12:28:35;;;;;;;15.30;5.05;;;5.20;97.60;;;;;;4986830;28;20060;-82
2024/01/13 12:31:05;;;;;;;12.75;4.97;;;5.10;97.60;;;;;;5002133;28;20041;-80
2024/01/13 12:33:32;;;;;;;13.20;4.85;;;5.10;97.70;;;;;;4970267;28;20029;-82
2024/01/13 12:36:03;;;;;;;14.50;4.53;;;5.10;97.70;;;;;;5002109;28;20033;-81
2024/01/13 12:38:30;;;;;;;8.38;3.88;;;5.10;97.80;;;;;;5032355;28;20041;-80
2024/01/13 12:40:59;;;;;;;12.70;3.85;;;5.10;97.80;;;;;;5021400;28;20124;-80